Avalon, Victoria

10:29 AM AEDT on January 27, 2015 (GMT +1100)
Avalon | Change Station
CLOSE
Current Station
Airport
Location: Avalon,
Elevation: 33 ft
Nearby Weather Stations

Elev 33 ft 38.03 °S, 144.48 °E | Updated 29 minutes ago

Clear
Clear
64 °F
Feels Like 64 °F
N
17
Wind Variable Wind from SSE

Today
High -- | Low -- °F
--% Chance of Precip.
Yesterday
High -- | Low -- °F
Precip. -- in
6:28 AM 8:40 PM
Waxing Crescent, 48% visible
Pressure 30.04 in
Visibility 6.2 miles
Clouds
Dew Point 45 °F
Humidity 49%
Rainfall 0.00 in
Snow Depth Not available.
UV Not available.
Pollen Not available.
Air Quality Not available.
Flu Activity Not available.
METAR YMAV 262300Z AUTO 16015KT 9999 // NCD 18/07 Q1017

More Conditions Fewer Conditions

Pressure 30.04 in
Visibility 6.2 miles
Clouds
Dew Point 45 °F
Humidity 49%
Rainfall 0.00 in
Snow Depth Not available.
UV Not available.
Pollen Not available.
Air Quality Not available.
Flu Activity Not available.
METAR YMAV 262300Z AUTO 16015KT 9999 // NCD 18/07 Q1017

More Conditions Fewer Conditions

10-Day Weather Forecast

Almanac

Astronomy

Jan. 27, 2015 Rise Set
Actual Time
Civil Twilight
Nautical Twilight
Astronomical Twilight
Moon
Length of Visible Light
Length of Day
Tomorrow will be .
, % of the Moon is Illuminated

Today's Extremes

Country Highs Country Lows

Community

WunderPhotos

Upload Photos

1,790,394 photos uploaded!

WunderBlogs® & News

Nearby

Air Quality

  Air Quality AQ Index Pollutant
Not available.

Snow Depth

Station Depth Elevation

Earthquake Activity

City Distance Mag. Time & Date
Minimum magnitude displayed is 2.5.

Coastal Water Temperatures

Place Temperature

Nearby Weather Stations